createdAt,value
2022-12-15T00:09:31.080Z,154.65
2022-12-15T00:24:51.769Z,132.65
2022-12-15T00:39:59.022Z,137.05
2022-12-15T00:55:19.485Z,143.93
2022-12-15T01:10:40.173Z,125.05
2022-12-15T01:25:42.092Z,120.43
2022-12-15T01:40:54.735Z,132.73
2022-12-15T01:55:57.253Z,135.13
2022-12-15T02:11:05.086Z,119.22
2022-12-15T02:26:13.141Z,119.57
2022-12-15T02:41:36.984Z,113.05
2022-12-15T02:56:49.576Z,99.97
2022-12-15T03:11:51.523Z,97.40
2022-12-15T03:26:53.492Z,93.45
2022-12-15T03:41:55.424Z,82.47
2022-12-15T03:56:57.320Z,79.10
2022-12-15T04:11:59.216Z,76.55
2022-12-15T04:27:19.945Z,72.22
2022-12-15T04:42:40.650Z,65.50
2022-12-15T04:58:01.479Z,58.92
2022-12-15T05:13:26.271Z,58.97
2022-12-15T05:28:47.237Z,52.47
2022-12-15T05:43:49.282Z,52.90
2022-12-15T05:58:51.214Z,49.63
2022-12-15T06:13:53.674Z,60.00
2022-12-15T06:28:58.266Z,55.15
2022-12-15T06:44:01.233Z,49.72
2022-12-15T06:59:04.764Z,48.92
2022-12-15T07:14:06.711Z,47.28
2022-12-15T07:29:09.637Z,41.30
2022-12-15T07:44:11.510Z,45.92
2022-12-15T07:59:13.381Z,38.80
2022-12-15T08:14:18.025Z,48.50
2022-12-15T08:44:42.443Z,48.35
2022-12-15T08:59:44.346Z,48.38
2022-12-15T09:14:46.261Z,47.30
2022-12-15T09:29:48.176Z,45.08
2022-12-15T09:45:02.395Z,43.22
2022-12-15T10:00:14.439Z,35.40
2022-12-15T10:15:28.551Z,35.08
2022-12-15T10:30:30.872Z,33.00
2022-12-15T10:45:39.202Z,36.85
2022-12-15T11:00:41.191Z,31.73
2022-12-15T11:15:51.869Z,37.35
2022-12-15T11:31:19.695Z,34.60
2022-12-15T12:02:00.753Z,37.28
2022-12-15T12:17:18.210Z,35.45
2022-12-15T12:32:37.746Z,38.40
2022-12-15T12:47:46.868Z,35.28
2022-12-15T13:02:53.521Z,43.22
2022-12-15T13:18:08.463Z,37.78
2022-12-15T13:33:20.172Z,41.20
2022-12-15T13:48:41.667Z,37.95
2022-12-15T14:04:26.169Z,48.83
2022-12-15T14:19:39.025Z,58.33
2022-12-15T14:34:42.058Z,52.40
2022-12-15T14:49:45.577Z,57.78
2022-12-15T15:05:05.542Z,62.25
2022-12-15T15:20:17.626Z,70.47
2022-12-15T15:35:20.209Z,71.25
2022-12-15T15:50:29.051Z,81.72
2022-12-15T16:05:30.964Z,73.93
2022-12-15T16:20:34.487Z,92.00
2022-12-15T16:35:36.738Z,99.38
2022-12-15T16:50:40.489Z,130.35
2022-12-15T17:05:45.367Z,134.57
2022-12-15T17:20:47.536Z,131.82
2022-12-15T17:35:51.938Z,117.80
2022-12-15T17:50:54.017Z,115.82
2022-12-15T18:05:55.952Z,138.45
2022-12-15T18:21:02.232Z,211.57
2022-12-15T18:36:04.566Z,248.93
2022-12-15T18:51:16.567Z,247.07
2022-12-15T19:06:35.245Z,196.25
2022-12-15T19:21:57.033Z,188.45
2022-12-15T19:37:00.538Z,224.85
2022-12-15T19:52:02.469Z,225.77
2022-12-15T20:07:04.721Z,196.55
2022-12-15T20:22:11.963Z,237.20
2022-12-15T20:37:27.882Z,202.35
2022-12-15T20:52:29.831Z,195.43
2022-12-15T21:07:31.741Z,206.73
2022-12-15T21:22:34.415Z,200.57
2022-12-15T21:37:36.809Z,200.18
2022-12-15T21:52:38.897Z,203.82
2022-12-15T22:07:40.756Z,189.27
2022-12-15T22:22:42.899Z,176.88
2022-12-15T22:37:45.586Z,178.15
2022-12-15T22:52:47.982Z,153.10
2022-12-15T23:07:50.017Z,147.93
2022-12-15T23:22:53.692Z,150.90
2022-12-15T23:37:58.392Z,144.35
2022-12-15T23:53:00.788Z,137.93
